sensor_id;sensor_type;location;lat;lon;timestamp;temperature;humidity
81902;DHT22;71369;50.796;3.290;2024-01-10T00:01:35;-3.70;91.70
81902;DHT22;71369;50.796;3.290;2024-01-10T00:04:01;-3.70;92.20
81902;DHT22;71369;50.796;3.290;2024-01-10T00:06:27;-3.80;92.30
81902;DHT22;71369;50.796;3.290;2024-01-10T00:08:52;-3.70;92.50
81902;DHT22;71369;50.796;3.290;2024-01-10T00:11:18;-3.70;92.40
81902;DHT22;71369;50.796;3.290;2024-01-10T00:13:44;-3.80;92.60
81902;DHT22;71369;50.796;3.290;2024-01-10T00:16:12;-3.80;92.50
81902;DHT22;71369;50.796;3.290;2024-01-10T00:18:39;-3.70;92.60
81902;DHT22;71369;50.796;3.290;2024-01-10T00:21:06;-3.80;93.10
81902;DHT22;71369;50.796;3.290;2024-01-10T00:23:32;-3.80;93.20
81902;DHT22;71369;50.796;3.290;2024-01-10T00:25:57;-3.80;93.60
81902;DHT22;71369;50.796;3.290;2024-01-10T00:28:24;-3.80;94.00
81902;DHT22;71369;50.796;3.290;2024-01-10T00:30:50;-3.80;94.00
81902;DHT22;71369;50.796;3.290;2024-01-10T00:33:16;-3.80;93.40
81902;DHT22;71369;50.796;3.290;2024-01-10T00:35:42;-3.80;94.00
81902;DHT22;71369;50.796;3.290;2024-01-10T00:38:08;-3.90;94.40
81902;DHT22;71369;50.796;3.290;2024-01-10T00:40:34;-3.90;94.80
81902;DHT22;71369;50.796;3.290;2024-01-10T00:42:59;-4.00;95.20
81902;DHT22;71369;50.796;3.290;2024-01-10T00:45:25;-3.90;95.80
81902;DHT22;71369;50.796;3.290;2024-01-10T00:47:51;-4.00;96.90
81902;DHT22;71369;50.796;3.290;2024-01-10T00:50:16;-4.00;96.00
81902;DHT22;71369;50.796;3.290;2024-01-10T00:52:44;-3.90;96.20
81902;DHT22;71369;50.796;3.290;2024-01-10T00:55:10;-3.90;95.20
81902;DHT22;71369;50.796;3.290;2024-01-10T00:57:35;-3.90;96.00
81902;DHT22;71369;50.796;3.290;2024-01-10T01:00:07;-4.00;96.70
81902;DHT22;71369;50.796;3.290;2024-01-10T01:02:33;-4.00;97.30
81902;DHT22;71369;50.796;3.290;2024-01-10T01:04:58;-4.00;97.50
81902;DHT22;71369;50.796;3.290;2024-01-10T01:07:24;-4.00;97.50
81902;DHT22;71369;50.796;3.290;2024-01-10T01:09:50;-4.00;97.50
81902;DHT22;71369;50.796;3.290;2024-01-10T01:12:16;-4.00;97.80
81902;DHT22;71369;50.796;3.290;2024-01-10T01:14:41;-4.10;97.90
81902;DHT22;71369;50.796;3.290;2024-01-10T01:17:08;-4.10;97.50
81902;DHT22;71369;50.796;3.290;2024-01-10T01:19:34;-4.20;98.40
81902;DHT22;71369;50.796;3.290;2024-01-10T01:21:59;-4.20;98.70
81902;DHT22;71369;50.796;3.290;2024-01-10T01:24:25;-4.10;98.40
81902;DHT22;71369;50.796;3.290;2024-01-10T01:26:51;-4.10;98.00
81902;DHT22;71369;50.796;3.290;2024-01-10T01:29:17;-4.20;98.70
81902;DHT22;71369;50.796;3.290;2024-01-10T01:31:43;-4.20;99.10
81902;DHT22;71369;50.796;3.290;2024-01-10T01:34:09;-4.20;99.40
81902;DHT22;71369;50.796;3.290;2024-01-10T01:36:35;-4.20;98.70
81902;DHT22;71369;50.796;3.290;2024-01-10T01:39:00;-4.10;98.60
81902;DHT22;71369;50.796;3.290;2024-01-10T01:41:26;-4.10;98.70
81902;DHT22;71369;50.796;3.290;2024-01-10T01:43:52;-4.20;99.00
81902;DHT22;71369;50.796;3.290;2024-01-10T01:46:18;-4.20;98.90
81902;DHT22;71369;50.796;3.290;2024-01-10T01:48:44;-4.20;98.90
81902;DHT22;71369;50.796;3.290;2024-01-10T01:51:12;-4.20;99.40
81902;DHT22;71369;50.796;3.290;2024-01-10T01:53:40;-4.20;99.50
81902;DHT22;71369;50.796;3.290;2024-01-10T01:56:08;-4.20;98.90
81902;DHT22;71369;50.796;3.290;2024-01-10T01:58:35;-4.20;98.80
81902;DHT22;71369;50.796;3.290;2024-01-10T02:01:02;-4.20;99.00
81902;DHT22;71369;50.796;3.290;2024-01-10T02:03:30;-4.20;99.90
81902;DHT22;71369;50.796;3.290;2024-01-10T02:05:56;-4.40;99.90
81902;DHT22;71369;50.796;3.290;2024-01-10T02:08:23;-4.30;99.90
81902;DHT22;71369;50.796;3.290;2024-01-10T02:10:48;-4.30;99.90
81902;DHT22;71369;50.796;3.290;2024-01-10T02:13:15;-4.30;99.90
81902;DHT22;71369;50.796;3.290;2024-01-10T02:15:41;-4.40;99.90
81902;DHT22;71369;50.796;3.290;2024-01-10T02:18:07;-4.40;99.90
81902;DHT22;71369;50.796;3.290;2024-01-10T02:20:33;-4.40;99.90
81902;DHT22;71369;50.796;3.290;2024-01-10T02:22:58;-4.50;99.90
81902;DHT22;71369;50.796;3.290;2024-01-10T02:25:25;-4.50;99.90
81902;DHT22;71369;50.796;3.290;2024-01-10T02:27:51;-4.50;99.90
81902;DHT22;71369;50.796;3.290;2024-01-10T02:30:16;-4.50;99.90
81902;DHT22;71369;50.796;3.290;2024-01-10T02:32:42;-4.50;99.90
81902;DHT22;71369;50.796;3.290;2024-01-10T02:35:08;-4.40;99.90
81902;DHT22;71369;50.796;3.290;2024-01-10T02:37:34;-4.60;99.90
81902;DHT22;71369;50.796;3.290;2024-01-10T02:40:00;-4.50;99.90
81902;DHT22;71369;50.796;3.290;2024-01-10T02:42:27;-4.60;99.90
81902;DHT22;71369;50.796;3.290;2024-01-10T02:44:53;-4.60;99.90
81902;DHT22;71369;50.796;3.290;2024-01-10T02:47:19;-4.60;99.90
81902;DHT22;71369;50.796;3.290;2024-01-10T02:49:45;-4.60;99.90
81902;DHT22;71369;50.796;3.290;2024-01-10T02:52:10;-4.70;99.90
81902;DHT22;71369;50.796;3.290;2024-01-10T02:54:36;-4.60;99.90
81902;DHT22;71369;50.796;3.290;2024-01-10T02:57:02;-4.60;99.90
81902;DHT22;71369;50.796;3.290;2024-01-10T02:59:28;-4.60;99.90
81902;DHT22;71369;50.796;3.290;2024-01-10T03:01:54;-4.60;99.90
81902;DHT22;71369;50.796;3.290;2024-01-10T03:04:19;-4.60;99.90
81902;DHT22;71369;50.796;3.290;2024-01-10T03:06:45;-4.60;99.90
81902;DHT22;71369;50.796;3.290;2024-01-10T03:09:11;-4.60;99.90
81902;DHT22;71369;50.796;3.290;2024-01-10T03:11:36;-4.70;99.90
81902;DHT22;71369;50.796;3.290;2024-01-10T03:14:10;-4.80;99.90
81902;DHT22;71369;50.796;3.290;2024-01-10T03:16:36;-4.70;99.90
81902;DHT22;71369;50.796;3.290;2024-01-10T03:19:03;-4.80;99.90
81902;DHT22;71369;50.796;3.290;2024-01-10T03:21:28;-4.90;99.90
81902;DHT22;71369;50.796;3.290;2024-01-10T03:23:58;-4.90;99.90
81902;DHT22;71369;50.796;3.290;2024-01-10T03:26:24;-4.80;99.90
81902;DHT22;71369;50.796;3.290;2024-01-10T03:28:50;-4.90;99.90
81902;DHT22;71369;50.796;3.290;2024-01-10T03:31:16;-4.90;99.90
81902;DHT22;71369;50.796;3.290;2024-01-10T03:33:42;-4.90;99.90
81902;DHT22;71369;50.796;3.290;2024-01-10T03:36:11;-5.00;99.90
81902;DHT22;71369;50.796;3.290;2024-01-10T03:38:37;-5.00;99.90
81902;DHT22;71369;50.796;3.290;2024-01-10T03:41:03;-5.00;99.90
81902;DHT22;71369;50.796;3.290;2024-01-10T03:43:29;-5.00;99.90
81902;DHT22;71369;50.796;3.290;2024-01-10T03:45:55;-4.90;99.90
81902;DHT22;71369;50.796;3.290;2024-01-10T03:48:20;-5.00;99.90
81902;DHT22;71369;50.796;3.290;2024-01-10T03:50:46;-5.10;99.90
81902;DHT22;71369;50.796;3.290;2024-01-10T03:53:12;-5.00;99.90
81902;DHT22;71369;50.796;3.290;2024-01-10T03:55:38;-5.00;99.90
81902;DHT22;71369;50.796;3.290;2024-01-10T03:58:04;-5.10;99.90
81902;DHT22;71369;50.796;3.290;2024-01-10T04:00:30;-5.20;99.90
81902;DHT22;71369;50.796;3.290;2024-01-10T04:02:56;-5.20;99.90
81902;DHT22;71369;50.796;3.290;2024-01-10T04:05:22;-5.20;99.90
81902;DHT22;71369;50.796;3.290;2024-01-10T04:07:51;-5.20;99.90
81902;DHT22;71369;50.796;3.290;2024-01-10T04:10:17;-5.30;99.90
81902;DHT22;71369;50.796;3.290;2024-01-10T04:12:43;-5.30;99.90
81902;DHT22;71369;50.796;3.290;2024-01-10T04:15:10;-5.30;99.90
81902;DHT22;71369;50.796;3.290;2024-01-10T04:17:36;-5.30;99.90
81902;DHT22;71369;50.796;3.290;2024-01-10T04:20:02;-5.20;99.90
81902;DHT22;71369;50.796;3.290;2024-01-10T04:22:28;-5.20;99.90
81902;DHT22;71369;50.796;3.290;2024-01-10T04:24:58;-5.30;99.90
81902;DHT22;71369;50.796;3.290;2024-01-10T04:27:24;-5.30;99.90
81902;DHT22;71369;50.796;3.290;2024-01-10T04:29:50;-5.20;99.90
81902;DHT22;71369;50.796;3.290;2024-01-10T04:32:15;-5.20;99.90
81902;DHT22;71369;50.796;3.290;2024-01-10T04:34:41;-5.20;99.90
81902;DHT22;71369;50.796;3.290;2024-01-10T04:37:07;-5.20;99.90
81902;DHT22;71369;50.796;3.290;2024-01-10T04:39:34;-5.20;99.90
81902;DHT22;71369;50.796;3.290;2024-01-10T04:41:59;-5.10;99.90
81902;DHT22;71369;50.796;3.290;2024-01-10T04:44:25;-5.20;99.90
81902;DHT22;71369;50.796;3.290;2024-01-10T04:46:51;-5.20;99.90
81902;DHT22;71369;50.796;3.290;2024-01-10T04:49:17;-5.30;99.90
81902;DHT22;71369;50.796;3.290;2024-01-10T04:51:43;-5.20;99.90
81902;DHT22;71369;50.796;3.290;2024-01-10T04:54:09;-5.20;99.90
81902;DHT22;71369;50.796;3.290;2024-01-10T04:56:35;-5.20;99.90
81902;DHT22;71369;50.796;3.290;2024-01-10T04:59:04;-5.30;99.90
81902;DHT22;71369;50.796;3.290;2024-01-10T05:01:30;-5.30;99.90
81902;DHT22;71369;50.796;3.290;2024-01-10T05:03:56;-5.20;99.90
81902;DHT22;71369;50.796;3.290;2024-01-10T05:06:22;-5.30;99.90
81902;DHT22;71369;50.796;3.290;2024-01-10T05:08:48;-5.30;99.90
81902;DHT22;71369;50.796;3.290;2024-01-10T05:11:15;-5.20;99.90
81902;DHT22;71369;50.796;3.290;2024-01-10T05:13:42;-5.20;99.90
81902;DHT22;71369;50.796;3.290;2024-01-10T05:16:08;-5.10;99.90
81902;DHT22;71369;50.796;3.290;2024-01-10T05:18:33;-5.20;99.90
81902;DHT22;71369;50.796;3.290;2024-01-10T05:21:00;-5.30;99.90
81902;DHT22;71369;50.796;3.290;2024-01-10T05:23:26;-5.30;99.90
81902;DHT22;71369;50.796;3.290;2024-01-10T05:25:53;-5.30;99.90
81902;DHT22;71369;50.796;3.290;2024-01-10T05:28:19;-5.40;99.90
81902;DHT22;71369;50.796;3.290;2024-01-10T05:30:44;-5.50;99.90
81902;DHT22;71369;50.796;3.290;2024-01-10T05:33:10;-5.30;99.90
81902;DHT22;71369;50.796;3.290;2024-01-10T05:35:39;-5.30;99.90
81902;DHT22;71369;50.796;3.290;2024-01-10T05:38:05;-5.30;99.90
81902;DHT22;71369;50.796;3.290;2024-01-10T05:40:31;-5.20;99.90
81902;DHT22;71369;50.796;3.290;2024-01-10T05:42:58;-5.20;99.90
81902;DHT22;71369;50.796;3.290;2024-01-10T05:45:25;-5.30;99.90
81902;DHT22;71369;50.796;3.290;2024-01-10T05:47:51;-5.20;99.90
81902;DHT22;71369;50.796;3.290;2024-01-10T05:50:17;-5.30;99.90
81902;DHT22;71369;50.796;3.290;2024-01-10T05:52:43;-5.30;99.90
81902;DHT22;71369;50.796;3.290;2024-01-10T05:55:09;-5.30;99.90
81902;DHT22;71369;50.796;3.290;2024-01-10T05:57:38;-5.30;99.90
81902;DHT22;71369;50.796;3.290;2024-01-10T06:00:04;-5.30;99.90
81902;DHT22;71369;50.796;3.290;2024-01-10T06:02:36;-5.30;99.90
81902;DHT22;71369;50.796;3.290;2024-01-10T06:05:07;-5.30;99.90
81902;DHT22;71369;50.796;3.290;2024-01-10T06:07:36;-5.30;99.90
81902;DHT22;71369;50.796;3.290;2024-01-10T06:10:02;-5.20;99.90
81902;DHT22;71369;50.796;3.290;2024-01-10T06:12:27;-5.20;99.90
81902;DHT22;71369;50.796;3.290;2024-01-10T06:14:54;-5.30;99.90
81902;DHT22;71369;50.796;3.290;2024-01-10T06:17:20;-5.30;99.90
81902;DHT22;71369;50.796;3.290;2024-01-10T06:19:45;-5.40;99.90
81902;DHT22;71369;50.796;3.290;2024-01-10T06:22:11;-5.30;99.90
81902;DHT22;71369;50.796;3.290;2024-01-10T06:24:37;-5.30;99.90
81902;DHT22;71369;50.796;3.290;2024-01-10T06:27:04;-5.30;99.90
81902;DHT22;71369;50.796;3.290;2024-01-10T06:29:31;-5.30;99.90
81902;DHT22;71369;50.796;3.290;2024-01-10T06:31:57;-5.40;99.90
81902;DHT22;71369;50.796;3.290;2024-01-10T06:34:24;-5.40;99.90
81902;DHT22;71369;50.796;3.290;2024-01-10T06:36:50;-5.30;99.90
81902;DHT22;71369;50.796;3.290;2024-01-10T06:39:15;-5.40;99.90
81902;DHT22;71369;50.796;3.290;2024-01-10T06:41:42;-5.30;99.90
81902;DHT22;71369;50.796;3.290;2024-01-10T06:44:09;-5.40;99.90
81902;DHT22;71369;50.796;3.290;2024-01-10T06:46:35;-5.30;99.90
81902;DHT22;71369;50.796;3.290;2024-01-10T06:49:01;-5.40;99.90
81902;DHT22;71369;50.796;3.290;2024-01-10T06:51:27;-5.40;99.90
81902;DHT22;71369;50.796;3.290;2024-01-10T06:53:53;-5.40;99.90
81902;DHT22;71369;50.796;3.290;2024-01-10T06:56:18;-5.30;99.90
81902;DHT22;71369;50.796;3.290;2024-01-10T06:58:44;-5.30;99.90
81902;DHT22;71369;50.796;3.290;2024-01-10T07:01:14;-5.30;99.90
81902;DHT22;71369;50.796;3.290;2024-01-10T07:03:40;-5.10;99.90
81902;DHT22;71369;50.796;3.290;2024-01-10T07:06:06;-5.00;99.90
81902;DHT22;71369;50.796;3.290;2024-01-10T07:08:31;-5.10;99.90
81902;DHT22;71369;50.796;3.290;2024-01-10T07:10:57;-5.10;99.90
81902;DHT22;71369;50.796;3.290;2024-01-10T07:13:23;-5.20;99.90
81902;DHT22;71369;50.796;3.290;2024-01-10T07:15:49;-5.30;99.90
81902;DHT22;71369;50.796;3.290;2024-01-10T07:18:18;-5.30;99.90
81902;DHT22;71369;50.796;3.290;2024-01-10T07:20:43;-5.30;99.90
81902;DHT22;71369;50.796;3.290;2024-01-10T07:23:09;-5.20;99.90
81902;DHT22;71369;50.796;3.290;2024-01-10T07:25:35;-5.20;99.90
81902;DHT22;71369;50.796;3.290;2024-01-10T07:28:03;-5.20;99.90
81902;DHT22;71369;50.796;3.290;2024-01-10T07:30:28;-5.20;99.90
81902;DHT22;71369;50.796;3.290;2024-01-10T07:32:58;-5.20;99.90
81902;DHT22;71369;50.796;3.290;2024-01-10T07:35:25;-5.20;99.90
81902;DHT22;71369;50.796;3.290;2024-01-10T07:37:50;-5.20;99.90
81902;DHT22;71369;50.796;3.290;2024-01-10T07:40:17;-5.20;99.90
81902;DHT22;71369;50.796;3.290;2024-01-10T07:42:43;-5.30;99.90
81902;DHT22;71369;50.796;3.290;2024-01-10T07:45:09;-5.20;99.90
81902;DHT22;71369;50.796;3.290;2024-01-10T07:47:35;-5.20;99.90
81902;DHT22;71369;50.796;3.290;2024-01-10T07:50:08;-5.20;99.90
81902;DHT22;71369;50.796;3.290;2024-01-10T07:52:34;-5.20;99.90
81902;DHT22;71369;50.796;3.290;2024-01-10T07:55:00;-5.20;99.90
81902;DHT22;71369;50.796;3.290;2024-01-10T07:57:27;-5.20;99.90
81902;DHT22;71369;50.796;3.290;2024-01-10T07:59:55;-5.20;99.90
81902;DHT22;71369;50.796;3.290;2024-01-10T08:02:21;-5.10;99.90
81902;DHT22;71369;50.796;3.290;2024-01-10T08:04:47;-5.10;99.90
81902;DHT22;71369;50.796;3.290;2024-01-10T08:07:13;-5.00;99.90
81902;DHT22;71369;50.796;3.290;2024-01-10T08:09:38;-4.90;99.90
81902;DHT22;71369;50.796;3.290;2024-01-10T08:12:04;-4.90;99.90
81902;DHT22;71369;50.796;3.290;2024-01-10T08:14:30;-4.90;99.90
81902;DHT22;71369;50.796;3.290;2024-01-10T08:16:56;-4.90;99.90
81902;DHT22;71369;50.796;3.290;2024-01-10T08:19:26;-4.90;99.90
81902;DHT22;71369;50.796;3.290;2024-01-10T08:21:53;-4.80;99.90
81902;DHT22;71369;50.796;3.290;2024-01-10T08:24:19;-4.70;99.90
81902;DHT22;71369;50.796;3.290;2024-01-10T08:26:48;-4.50;99.90
81902;DHT22;71369;50.796;3.290;2024-01-10T08:29:18;-4.20;99.90
81902;DHT22;71369;50.796;3.290;2024-01-10T08:31:45;-3.90;99.30
81902;DHT22;71369;50.796;3.290;2024-01-10T08:34:11;-3.50;96.20
81902;DHT22;71369;50.796;3.290;2024-01-10T08:36:37;-3.20;94.20
81902;DHT22;71369;50.796;3.290;2024-01-10T08:39:03;-2.90;91.70
81902;DHT22;71369;50.796;3.290;2024-01-10T08:41:30;-2.60;89.80
81902;DHT22;71369;50.796;3.290;2024-01-10T08:43:56;-2.20;85.80
81902;DHT22;71369;50.796;3.290;2024-01-10T08:46:22;-2.10;81.10
81902;DHT22;71369;50.796;3.290;2024-01-10T08:48:51;-2.20;81.80
81902;DHT22;71369;50.796;3.290;2024-01-10T08:51:17;-2.10;82.40
81902;DHT22;71369;50.796;3.290;2024-01-10T08:53:43;-1.90;79.40
81902;DHT22;71369;50.796;3.290;2024-01-10T08:56:09;-1.80;79.30
81902;DHT22;71369;50.796;3.290;2024-01-10T08:58:36;-1.60;76.30
81902;DHT22;71369;50.796;3.290;2024-01-10T09:01:02;-1.80;75.90
81902;DHT22;71369;50.796;3.290;2024-01-10T09:03:30;-1.90;77.00
81902;DHT22;71369;50.796;3.290;2024-01-10T09:05:56;-2.00;77.90
81902;DHT22;71369;50.796;3.290;2024-01-10T09:08:22;-1.90;78.60
81902;DHT22;71369;50.796;3.290;2024-01-10T09:10:48;-1.80;76.50
81902;DHT22;71369;50.796;3.290;2024-01-10T09:13:17;-1.50;73.80
81902;DHT22;71369;50.796;3.290;2024-01-10T09:15:42;-1.10;73.60
81902;DHT22;71369;50.796;3.290;2024-01-10T09:18:08;-0.90;68.50
81902;DHT22;71369;50.796;3.290;2024-01-10T09:20:34;-0.80;70.90
81902;DHT22;71369;50.796;3.290;2024-01-10T09:23:01;-0.80;67.00
81902;DHT22;71369;50.796;3.290;2024-01-10T09:25:28;-0.80;66.80
81902;DHT22;71369;50.796;3.290;2024-01-10T09:27:54;-0.80;67.70
81902;DHT22;71369;50.796;3.290;2024-01-10T09:30:20;-1.00;68.90
81902;DHT22;71369;50.796;3.290;2024-01-10T09:32:46;-0.80;67.90
81902;DHT22;71369;50.796;3.290;2024-01-10T09:35:12;-0.50;67.50
81902;DHT22;71369;50.796;3.290;2024-01-10T09:37:39;-0.20;64.70
81902;DHT22;71369;50.796;3.290;2024-01-10T09:40:05;-0.40;63.70
81902;DHT22;71369;50.796;3.290;2024-01-10T09:42:33;-0.60;64.70
81902;DHT22;71369;50.796;3.290;2024-01-10T09:45:01;-0.40;65.20
81902;DHT22;71369;50.796;3.290;2024-01-10T09:47:31;-0.40;64.20
81902;DHT22;71369;50.796;3.290;2024-01-10T09:49:58;0.00;65.00
81902;DHT22;71369;50.796;3.290;2024-01-10T09:52:25;0.20;61.40
81902;DHT22;71369;50.796;3.290;2024-01-10T09:54:57;0.40;59.60
81902;DHT22;71369;50.796;3.290;2024-01-10T09:57:26;1.20;59.00
81902;DHT22;71369;50.796;3.290;2024-01-10T09:59:54;2.20;55.20
81902;DHT22;71369;50.796;3.290;2024-01-10T10:02:23;2.60;53.40
81902;DHT22;71369;50.796;3.290;2024-01-10T10:05:02;3.40;53.10
81902;DHT22;71369;50.796;3.290;2024-01-10T10:07:29;3.30;50.80
81902;DHT22;71369;50.796;3.290;2024-01-10T10:09:55;3.50;50.90
81902;DHT22;71369;50.796;3.290;2024-01-10T10:12:51;3.00;49.90
81902;DHT22;71369;50.796;3.290;2024-01-10T10:15:24;2.60;52.00
81902;DHT22;71369;50.796;3.290;2024-01-10T10:17:53;2.60;51.80
81902;DHT22;71369;50.796;3.290;2024-01-10T10:25:30;2.40;51.50
81902;DHT22;71369;50.796;3.290;2024-01-10T10:27:57;2.20;52.20
81902;DHT22;71369;50.796;3.290;2024-01-10T10:30:22;2.30;52.30
81902;DHT22;71369;50.796;3.290;2024-01-10T10:32:49;2.20;53.20
81902;DHT22;71369;50.796;3.290;2024-01-10T10:35:14;2.20;53.10
81902;DHT22;71369;50.796;3.290;2024-01-10T10:37:40;2.30;53.00
81902;DHT22;71369;50.796;3.290;2024-01-10T10:40:06;2.20;52.40
81902;DHT22;71369;50.796;3.290;2024-01-10T10:42:37;2.10;53.10
81902;DHT22;71369;50.796;3.290;2024-01-10T10:45:07;1.80;53.60
81902;DHT22;71369;50.796;3.290;2024-01-10T10:47:36;1.60;54.30
81902;DHT22;71369;50.796;3.290;2024-01-10T10:50:05;1.50;54.70
81902;DHT22;71369;50.796;3.290;2024-01-10T10:52:31;2.10;53.90
81902;DHT22;71369;50.796;3.290;2024-01-10T10:54:59;1.80;53.50
81902;DHT22;71369;50.796;3.290;2024-01-10T10:57:25;2.10;53.80
81902;DHT22;71369;50.796;3.290;2024-01-10T10:59:53;2.50;52.70
81902;DHT22;71369;50.796;3.290;2024-01-10T11:02:21;2.50;52.40
81902;DHT22;71369;50.796;3.290;2024-01-10T11:04:52;2.50;52.20
81902;DHT22;71369;50.796;3.290;2024-01-10T11:07:19;2.40;51.10
81902;DHT22;71369;50.796;3.290;2024-01-10T11:09:47;2.30;51.90
81902;DHT22;71369;50.796;3.290;2024-01-10T11:18:08;1.80;53.90
81902;DHT22;71369;50.796;3.290;2024-01-10T11:20:51;2.10;53.60
81902;DHT22;71369;50.796;3.290;2024-01-10T11:23:28;2.30;52.80
81902;DHT22;71369;50.796;3.290;2024-01-10T11:25:59;2.10;52.80
81902;DHT22;71369;50.796;3.290;2024-01-10T11:28:25;2.00;52.50
81902;DHT22;71369;50.796;3.290;2024-01-10T11:30:53;2.10;52.40
81902;DHT22;71369;50.796;3.290;2024-01-10T11:33:30;2.10;52.30
81902;DHT22;71369;50.796;3.290;2024-01-10T11:39:00;2.30;51.90
81902;DHT22;71369;50.796;3.290;2024-01-10T11:41:32;2.50;51.70
81902;DHT22;71369;50.796;3.290;2024-01-10T11:46:38;2.40;51.80
81902;DHT22;71369;50.796;3.290;2024-01-10T11:49:08;2.20;51.40
81902;DHT22;71369;50.796;3.290;2024-01-10T11:51:35;2.40;51.50
81902;DHT22;71369;50.796;3.290;2024-01-10T11:54:02;2.50;51.50
81902;DHT22;71369;50.796;3.290;2024-01-10T11:56:38;2.70;52.10
81902;DHT22;71369;50.796;3.290;2024-01-10T11:59:12;3.10;51.10
81902;DHT22;71369;50.796;3.290;2024-01-10T12:01:38;3.00;50.10
81902;DHT22;71369;50.796;3.290;2024-01-10T12:04:05;3.00;49.90
81902;DHT22;71369;50.796;3.290;2024-01-10T12:06:40;3.20;50.20
81902;DHT22;71369;50.796;3.290;2024-01-10T12:09:06;3.70;48.70
81902;DHT22;71369;50.796;3.290;2024-01-10T12:11:35;4.10;48.10
81902;DHT22;71369;50.796;3.290;2024-01-10T12:14:02;4.20;47.50
81902;DHT22;71369;50.796;3.290;2024-01-10T12:16:28;5.20;46.80
81902;DHT22;71369;50.796;3.290;2024-01-10T12:18:55;5.70;44.20
81902;DHT22;71369;50.796;3.290;2024-01-10T12:21:20;5.60;43.50
81902;DHT22;71369;50.796;3.290;2024-01-10T12:23:47;4.70;44.80
81902;DHT22;71369;50.796;3.290;2024-01-10T12:26:14;3.90;46.50
81902;DHT22;71369;50.796;3.290;2024-01-10T12:28:40;3.20;48.70
81902;DHT22;71369;50.796;3.290;2024-01-10T12:31:08;2.90;49.00
81902;DHT22;71369;50.796;3.290;2024-01-10T12:33:35;2.40;50.50
81902;DHT22;71369;50.796;3.290;2024-01-10T12:36:10;2.00;51.90
81902;DHT22;71369;50.796;3.290;2024-01-10T12:38:38;1.70;52.30
81902;DHT22;71369;50.796;3.290;2024-01-10T12:41:04;1.50;53.60
81902;DHT22;71369;50.796;3.290;2024-01-10T12:43:31;1.20;54.20
81902;DHT22;71369;50.796;3.290;2024-01-10T12:46:12;0.90;55.60
81902;DHT22;71369;50.796;3.290;2024-01-10T12:48:42;0.90;56.50
81902;DHT22;71369;50.796;3.290;2024-01-10T12:51:11;0.90;56.40
81902;DHT22;71369;50.796;3.290;2024-01-10T12:53:39;0.80;57.60
81902;DHT22;71369;50.796;3.290;2024-01-10T12:56:06;1.30;57.50
81902;DHT22;71369;50.796;3.290;2024-01-10T12:58:33;1.70;56.10
81902;DHT22;71369;50.796;3.290;2024-01-10T13:01:00;2.30;54.30
81902;DHT22;71369;50.796;3.290;2024-01-10T13:03:26;2.50;52.80
81902;DHT22;71369;50.796;3.290;2024-01-10T13:05:52;2.80;52.50
81902;DHT22;71369;50.796;3.290;2024-01-10T13:08:18;3.20;51.20
81902;DHT22;71369;50.796;3.290;2024-01-10T13:10:44;3.30;50.40
81902;DHT22;71369;50.796;3.290;2024-01-10T13:13:11;3.30;50.30
81902;DHT22;71369;50.796;3.290;2024-01-10T13:15:37;3.30;50.50
81902;DHT22;71369;50.796;3.290;2024-01-10T13:18:03;3.20;49.90
81902;DHT22;71369;50.796;3.290;2024-01-10T13:20:28;3.10;50.80
81902;DHT22;71369;50.796;3.290;2024-01-10T13:22:54;3.40;50.60
81902;DHT22;71369;50.796;3.290;2024-01-10T13:25:21;3.90;49.00
81902;DHT22;71369;50.796;3.290;2024-01-10T13:27:50;4.20;47.60
81902;DHT22;71369;50.796;3.290;2024-01-10T13:30:16;4.10;47.50
81902;DHT22;71369;50.796;3.290;2024-01-10T13:32:43;4.00;48.10
81902;DHT22;71369;50.796;3.290;2024-01-10T13:35:09;3.50;48.20
81902;DHT22;71369;50.796;3.290;2024-01-10T13:37:36;3.30;49.20
81902;DHT22;71369;50.796;3.290;2024-01-10T13:40:02;3.70;49.00
81902;DHT22;71369;50.796;3.290;2024-01-10T13:42:31;4.20;48.80
81902;DHT22;71369;50.796;3.290;2024-01-10T13:44:58;4.20;48.30
81902;DHT22;71369;50.796;3.290;2024-01-10T13:47:24;4.20;47.90
81902;DHT22;71369;50.796;3.290;2024-01-10T13:49:49;4.50;48.70
81902;DHT22;71369;50.796;3.290;2024-01-10T13:52:15;4.70;46.50
81902;DHT22;71369;50.796;3.290;2024-01-10T13:54:41;4.70;46.90
81902;DHT22;71369;50.796;3.290;2024-01-10T13:57:08;4.90;46.30
81902;DHT22;71369;50.796;3.290;2024-01-10T13:59:33;4.60;46.30
81902;DHT22;71369;50.796;3.290;2024-01-10T14:01:59;4.80;46.80
81902;DHT22;71369;50.796;3.290;2024-01-10T14:04:25;4.80;46.40
81902;DHT22;71369;50.796;3.290;2024-01-10T14:06:51;4.70;46.00
81902;DHT22;71369;50.796;3.290;2024-01-10T14:09:17;4.40;46.80
81902;DHT22;71369;50.796;3.290;2024-01-10T14:11:43;4.10;48.00
81902;DHT22;71369;50.796;3.290;2024-01-10T14:14:10;3.60;48.80
81902;DHT22;71369;50.796;3.290;2024-01-10T14:16:36;2.90;50.40
81902;DHT22;71369;50.796;3.290;2024-01-10T14:19:02;2.40;52.20
81902;DHT22;71369;50.796;3.290;2024-01-10T14:21:28;1.80;53.30
81902;DHT22;71369;50.796;3.290;2024-01-10T14:23:55;1.50;54.80
81902;DHT22;71369;50.796;3.290;2024-01-10T14:26:20;1.20;57.00
81902;DHT22;71369;50.796;3.290;2024-01-10T14:28:46;1.00;57.10
81902;DHT22;71369;50.796;3.290;2024-01-10T14:31:12;1.00;58.60
81902;DHT22;71369;50.796;3.290;2024-01-10T14:33:39;0.90;58.70
81902;DHT22;71369;50.796;3.290;2024-01-10T14:36:05;0.80;59.30
81902;DHT22;71369;50.796;3.290;2024-01-10T14:38:31;0.70;59.80
81902;DHT22;71369;50.796;3.290;2024-01-10T14:40:57;0.50;59.70
81902;DHT22;71369;50.796;3.290;2024-01-10T14:43:24;0.40;61.40
81902;DHT22;71369;50.796;3.290;2024-01-10T14:45:50;0.50;61.00
81902;DHT22;71369;50.796;3.290;2024-01-10T14:48:16;0.50;61.10
81902;DHT22;71369;50.796;3.290;2024-01-10T14:50:41;0.50;62.10
81902;DHT22;71369;50.796;3.290;2024-01-10T14:53:07;0.30;61.90
81902;DHT22;71369;50.796;3.290;2024-01-10T14:55:33;0.30;62.30
81902;DHT22;71369;50.796;3.290;2024-01-10T14:57:59;0.20;63.00
81902;DHT22;71369;50.796;3.290;2024-01-10T15:00:25;0.10;64.10
81902;DHT22;71369;50.796;3.290;2024-01-10T15:02:51;0.00;64.60
81902;DHT22;71369;50.796;3.290;2024-01-10T15:05:16;0.00;65.70
81902;DHT22;71369;50.796;3.290;2024-01-10T15:07:43;0.00;66.40
81902;DHT22;71369;50.796;3.290;2024-01-10T15:10:09;0.00;65.40
81902;DHT22;71369;50.796;3.290;2024-01-10T15:12:35;0.10;65.50
81902;DHT22;71369;50.796;3.290;2024-01-10T15:15:01;-0.10;65.40
81902;DHT22;71369;50.796;3.290;2024-01-10T15:17:27;-0.10;66.50
81902;DHT22;71369;50.796;3.290;2024-01-10T15:19:53;-0.10;66.50
81902;DHT22;71369;50.796;3.290;2024-01-10T15:22:19;-0.10;66.20
81902;DHT22;71369;50.796;3.290;2024-01-10T15:24:44;-0.20;65.80
81902;DHT22;71369;50.796;3.290;2024-01-10T15:27:10;-0.30;67.40
81902;DHT22;71369;50.796;3.290;2024-01-10T15:29:40;-0.40;67.80
81902;DHT22;71369;50.796;3.290;2024-01-10T15:32:06;-0.50;68.60
81902;DHT22;71369;50.796;3.290;2024-01-10T15:34:32;-0.50;70.70
81902;DHT22;71369;50.796;3.290;2024-01-10T15:36:58;-0.60;71.30
81902;DHT22;71369;50.796;3.290;2024-01-10T15:39:24;-0.60;71.50
81902;DHT22;71369;50.796;3.290;2024-01-10T15:41:50;-0.50;71.50
81902;DHT22;71369;50.796;3.290;2024-01-10T15:44:18;-0.60;72.60
81902;DHT22;71369;50.796;3.290;2024-01-10T15:46:45;-0.60;73.60
81902;DHT22;71369;50.796;3.290;2024-01-10T15:49:11;-0.70;74.20